Time;durP1;ratioP1;P1;durP2;ratioP2;P2;SDS_P1;SDS_P2;PMS_P1;PMS_P2;Temp;Humidity;BMP_temperature;BMP_pressure;BME280_temperature;BME280_humidity;BME280_pressure;Samples;Min_cycle;Max_cycle;Signal;HPM_P1;HPM_P2
2024/01/03 00:00:33;;;;;;;37.92;20.27;;;179.60;2252.80;;;;;;5032293;28;20049;-74
2024/01/03 00:02:59;;;;;;;46.40;23.92;;;179.60;2252.80;;;;;;5033784;28;20132;-72
2024/01/03 00:05:38;;;;;;;44.10;20.95;;;179.60;2252.80;;;;;;5017960;28;20128;-70
2024/01/03 00:08:14;;;;;;;73.45;35.92;;;179.60;2252.80;;;;;;5026211;28;20037;-66
2024/01/03 00:10:49;;;;;;;45.40;23.20;;;179.60;2252.80;;;;;;5035372;28;20128;-76
2024/01/03 00:13:29;;;;;;;49.65;26.40;;;179.70;2252.80;;;;;;5031481;28;20045;-84
2024/01/03 00:16:22;;;;;;;46.50;24.67;;;179.80;2252.80;;;;;;5037221;28;20064;-84
2024/01/03 00:18:49;;;;;;;42.30;23.55;;;179.80;2252.80;;;;;;5027489;28;20551;-83
2024/01/03 00:21:22;;;;;;;42.17;22.73;;;179.90;2252.80;;;;;;5028426;28;20033;-81
2024/01/03 00:24:07;;;;;;;41.95;21.17;;;179.90;2252.80;;;;;;5031264;28;20504;-79
2024/01/03 00:26:34;;;;;;;46.65;25.10;;;179.90;2252.80;;;;;;5027194;28;20030;-70
2024/01/03 00:29:01;;;;;;;48.08;26.05;;;179.90;2252.80;;;;;;5013406;28;20068;-85
2024/01/03 00:31:41;;;;;;;49.33;27.63;;;179.90;2252.80;;;;;;5030649;28;20029;-81
2024/01/03 00:34:22;;;;;;;43.03;24.27;;;179.90;2252.80;;;;;;5031406;28;20468;-84
2024/01/03 00:36:52;;;;;;;41.42;21.95;;;179.90;2252.80;;;;;;5030788;28;20056;-70
2024/01/03 00:39:32;;;;;;;43.65;23.67;;;179.90;2252.80;;;;;;5030551;28;20088;-78
2024/01/03 00:41:58;;;;;;;41.08;21.35;;;179.90;2252.80;;;;;;5030926;28;20473;-75
2024/01/03 00:44:24;;;;;;;38.15;21.42;;;179.90;2252.80;;;;;;5031040;28;20052;-83
2024/01/03 00:46:51;;;;;;;40.08;22.02;;;179.90;2252.80;;;;;;5032755;28;20029;-67
2024/01/03 00:49:18;;;;;;;37.20;18.88;;;180.00;2252.80;;;;;;5032383;28;20037;-75
2024/01/03 00:51:48;;;;;;;33.03;18.42;;;180.00;2252.80;;;;;;5031590;28;20058;-80
2024/01/03 00:54:16;;;;;;;32.17;17.70;;;180.00;2252.80;;;;;;5031328;28;20388;-83
2024/01/03 00:56:42;;;;;;;32.05;17.25;;;180.10;2252.80;;;;;;5013258;28;20535;-69
2024/01/03 00:59:09;;;;;;;27.67;15.32;;;204.90;2252.80;;;;;;5030495;28;20034;-85
2024/01/03 01:01:34;;;;;;;29.05;16.33;;;204.80;2252.80;;;;;;5030783;28;20073;-84
2024/01/03 01:04:00;;;;;;;24.33;13.45;;;204.90;2252.80;;;;;;5014580;28;20806;-79
2024/01/03 01:06:26;;;;;;;29.23;16.38;;;205.00;2252.80;;;;;;5016869;28;20033;-81
2024/01/03 01:08:52;;;;;;;31.80;16.67;;;205.10;2252.80;;;;;;5032883;28;20511;-68
2024/01/03 01:11:26;;;;;;;28.90;13.48;;;205.10;2252.80;;;;;;5032149;28;20029;-81
2024/01/03 01:13:51;;;;;;;26.23;13.18;;;205.10;2252.80;;;;;;5033119;28;20051;-83
2024/01/03 01:16:17;;;;;;;27.63;13.88;;;205.20;2252.80;;;;;;5031325;28;20535;-78
2024/01/03 01:18:43;;;;;;;24.25;12.73;;;205.20;2252.80;;;;;;5032116;28;20361;-70
2024/01/03 01:21:08;;;;;;;25.15;13.23;;;205.20;2252.80;;;;;;5040314;28;20071;-82
2024/01/03 01:23:35;;;;;;;26.00;12.77;;;205.20;2252.80;;;;;;5034852;28;20034;-80
2024/01/03 01:26:01;;;;;;;26.73;13.02;;;205.20;2252.80;;;;;;5031624;28;20033;-83
2024/01/03 01:28:27;;;;;;;26.20;13.80;;;205.20;2252.80;;;;;;5032584;28;20036;-82
2024/01/03 01:30:52;;;;;;;28.83;14.52;;;205.20;2252.80;;;;;;5033573;28;20021;-76
2024/01/03 01:33:19;;;;;;;34.25;16.73;;;205.20;2252.80;;;;;;5033186;28;20374;-69
2024/01/03 01:35:45;;;;;;;35.30;18.73;;;205.10;2252.80;;;;;;5032303;28;20502;-67
2024/01/03 01:38:12;;;;;;;33.22;16.63;;;205.10;2252.80;;;;;;5032590;28;20041;-82
2024/01/03 01:40:40;;;;;;;35.08;17.00;;;205.10;2252.80;;;;;;5035096;28;20049;-83
2024/01/03 01:43:06;;;;;;;46.40;21.23;;;205.10;2252.80;;;;;;5032609;28;20029;-71
2024/01/03 01:45:32;;;;;;;28.67;14.07;;;205.10;2252.80;;;;;;5043548;28;20028;-79
2024/01/03 01:47:59;;;;;;;41.05;18.88;;;205.10;2252.80;;;;;;5052603;28;20036;-77
2024/01/03 01:50:25;;;;;;;29.02;14.55;;;205.10;2252.80;;;;;;5052847;28;20422;-83
2024/01/03 01:52:54;;;;;;;41.05;18.92;;;205.10;2252.80;;;;;;5035084;28;20024;-79
2024/01/03 01:55:22;;;;;;;43.85;20.30;;;205.10;2252.80;;;;;;5026761;28;20040;-82
2024/01/03 01:57:51;;;;;;;29.63;14.82;;;205.20;2252.80;;;;;;5019990;28;20037;-79
2024/01/03 02:00:18;;;;;;;33.40;15.88;;;205.10;2252.80;;;;;;5032717;28;20136;-74
2024/01/03 02:02:45;;;;;;;28.33;14.90;;;205.20;2252.80;;;;;;5032460;28;20045;-78
2024/01/03 02:05:13;;;;;;;30.00;16.63;;;205.30;2252.80;;;;;;5014139;28;20029;-70
2024/01/03 02:07:40;;;;;;;29.33;16.10;;;205.30;2252.80;;;;;;5014542;28;20087;-73
2024/01/03 02:10:08;;;;;;;30.00;15.52;;;205.40;2252.80;;;;;;5031974;28;20033;-82
2024/01/03 02:12:35;;;;;;;27.42;14.25;;;205.40;2252.80;;;;;;5012256;28;20573;-82
2024/01/03 02:15:00;;;;;;;27.10;16.40;;;205.50;2252.80;;;;;;5031549;28;20029;-65
2024/01/03 02:17:27;;;;;;;26.45;13.77;;;205.50;2252.80;;;;;;5031357;28;20108;-83
2024/01/03 02:19:56;;;;;;;25.23;12.85;;;205.60;2252.80;;;;;;5031723;28;20026;-74
2024/01/03 02:22:23;;;;;;;25.33;12.50;;;205.60;2252.80;;;;;;5050364;28;20049;-79
2024/01/03 02:24:48;;;;;;;22.13;11.88;;;205.70;2252.80;;;;;;5052253;28;20021;-81
2024/01/03 02:27:14;;;;;;;31.15;14.75;;;205.70;2252.80;;;;;;5046329;28;20032;-69
2024/01/03 02:29:41;;;;;;;36.10;15.48;;;205.70;2252.80;;;;;;5032514;28;20412;-81
2024/01/03 02:32:06;;;;;;;16.20;8.65;;;205.70;2252.80;;;;;;5031386;28;20101;-81
2024/01/03 02:34:32;;;;;;;26.13;12.10;;;205.70;2252.80;;;;;;5031100;28;20060;-76
2024/01/03 02:36:58;;;;;;;22.85;10.75;;;205.70;2252.80;;;;;;5030893;28;20483;-77
2024/01/03 02:39:24;;;;;;;25.00;11.20;;;205.70;2252.80;;;;;;5028717;28;20037;-73
2024/01/03 02:41:50;;;;;;;20.42;9.32;;;205.70;2252.80;;;;;;5010501;28;20037;-69
2024/01/03 02:44:16;;;;;;;15.38;8.70;;;205.60;2252.80;;;;;;5028121;28;20021;-66
2024/01/03 02:46:41;;;;;;;16.55;8.52;;;205.60;2252.80;;;;;;5031306;28;20679;-81
2024/01/03 02:49:09;;;;;;;14.98;8.90;;;205.60;2252.80;;;;;;5030964;28;20036;-70
2024/01/03 02:51:34;;;;;;;15.38;8.85;;;205.60;2252.80;;;;;;5033115;28;20029;-81
2024/01/03 02:54:00;;;;;;;13.60;7.40;;;205.60;2252.80;;;;;;5013033;28;20045;-68
2024/01/03 02:56:25;;;;;;;15.00;7.55;;;205.60;2252.80;;;;;;5033576;28;20021;-66
2024/01/03 02:58:51;;;;;;;14.27;7.85;;;205.60;2252.80;;;;;;5034108;28;20033;-69
2024/01/03 03:01:17;;;;;;;15.25;7.43;;;205.50;2252.80;;;;;;5031648;28;20504;-69
2024/01/03 03:03:42;;;;;;;14.40;7.93;;;205.50;2252.80;;;;;;5033349;28;20053;-66
2024/01/03 03:06:08;;;;;;;16.55;8.23;;;205.50;2252.80;;;;;;5032951;28;20048;-80
2024/01/03 03:08:34;;;;;;;19.60;8.70;;;205.50;2252.80;;;;;;5034099;28;20029;-78
2024/01/03 03:11:00;;;;;;;15.35;7.78;;;205.40;2252.80;;;;;;5032681;28;20472;-71
2024/01/03 03:13:28;;;;;;;15.25;7.57;;;205.40;2252.80;;;;;;5033317;28;20060;-69
2024/01/03 03:15:54;;;;;;;13.45;7.57;;;205.50;2252.80;;;;;;5034028;28;20025;-69
2024/01/03 03:18:19;;;;;;;15.20;7.57;;;205.40;2252.80;;;;;;5033441;28;20033;-69
2024/01/03 03:20:45;;;;;;;13.48;6.68;;;205.40;2252.80;;;;;;5033189;28;20029;-70
2024/01/03 03:23:11;;;;;;;14.63;7.13;;;205.50;2252.80;;;;;;5033883;28;20069;-79
2024/01/03 03:25:36;;;;;;;14.15;6.90;;;205.50;2252.80;;;;;;5033304;28;20029;-78
2024/01/03 03:28:07;;;;;;;13.40;7.20;;;205.50;2252.80;;;;;;5015128;28;20068;-65
2024/01/03 03:30:42;;;;;;;12.82;6.45;;;205.60;2252.80;;;;;;5033598;28;20017;-71
2024/01/03 03:33:08;;;;;;;19.67;9.68;;;205.60;2252.80;;;;;;5033759;28;20128;-65
2024/01/03 03:35:34;;;;;;;20.10;9.90;;;205.60;2252.80;;;;;;5033451;28;20113;-82
2024/01/03 03:38:00;;;;;;;15.68;7.20;;;205.60;2252.80;;;;;;5030415;28;20037;-63
2024/01/03 03:40:28;;;;;;;23.30;11.50;;;205.60;2252.80;;;;;;5032297;28;20104;-70
2024/01/03 03:42:54;;;;;;;21.85;10.98;;;205.60;2252.80;;;;;;5029520;28;20022;-78
2024/01/03 03:45:19;;;;;;;16.80;8.52;;;205.60;2252.80;;;;;;5032449;28;20080;-66
2024/01/03 03:47:47;;;;;;;15.80;7.50;;;205.70;2252.80;;;;;;5033279;28;20059;-73
2024/01/03 03:50:12;;;;;;;15.45;6.65;;;205.70;2252.80;;;;;;5033287;28;20037;-72
2024/01/03 03:52:40;;;;;;;21.25;12.23;;;205.60;2252.80;;;;;;5033595;28;20108;-75
2024/01/03 03:55:06;;;;;;;15.38;7.35;;;205.60;2252.80;;;;;;5032305;28;20026;-68
2024/01/03 03:57:32;;;;;;;57.65;26.92;;;205.60;2252.80;;;;;;5032912;28;20029;-68
2024/01/03 03:59:58;;;;;;;107.20;50.83;;;205.60;2252.80;;;;;;5037030;28;20025;-81
2024/01/03 04:02:24;;;;;;;12.52;6.30;;;205.60;2252.80;;;;;;5030060;28;20043;-79
2024/01/03 04:04:51;;;;;;;13.00;6.22;;;205.70;2252.80;;;;;;5032686;28;20036;-81
2024/01/03 04:07:17;;;;;;;69.60;29.10;;;205.70;2252.80;;;;;;5033498;28;20472;-83
2024/01/03 04:09:52;;;;;;;27.45;11.57;;;205.70;2252.80;;;;;;5032681;28;20034;-69
2024/01/03 04:12:18;;;;;;;52.75;23.88;;;205.70;2252.80;;;;;;5033939;28;20074;-82
2024/01/03 04:14:43;;;;;;;90.85;37.33;;;230.40;2252.80;;;;;;5032565;28;20081;-68
2024/01/03 04:17:09;;;;;;;84.30;33.30;;;230.40;2252.80;;;;;;5033106;28;20079;-70
2024/01/03 04:19:38;;;;;;;110.03;42.08;;;230.40;2252.80;;;;;;5031186;28;20100;-83
2024/01/03 04:22:04;;;;;;;102.32;39.67;;;230.50;2252.80;;;;;;5029514;28;20025;-72
2024/01/03 04:24:30;;;;;;;84.75;35.75;;;230.60;2252.80;;;;;;5032997;28;20029;-65
2024/01/03 04:26:56;;;;;;;37.83;17.90;;;230.60;2252.80;;;;;;5032434;28;20083;-72
2024/01/03 04:29:21;;;;;;;68.45;30.17;;;230.90;2252.80;;;;;;5032332;28;20037;-81
2024/01/03 04:31:47;;;;;;;41.05;16.65;;;230.80;2252.80;;;;;;5031891;28;20028;-78
2024/01/03 04:34:14;;;;;;;35.22;14.60;;;230.90;2252.80;;;;;;5027781;28;20042;-75
2024/01/03 04:36:39;;;;;;;62.90;25.33;;;230.90;2252.80;;;;;;5029822;28;20052;-72
2024/01/03 04:39:05;;;;;;;28.20;12.60;;;231.00;2252.80;;;;;;5027633;28;20026;-81
2024/01/03 04:41:31;;;;;;;48.88;20.38;;;231.00;2252.80;;;;;;5030465;28;20029;-76
2024/01/03 04:43:56;;;;;;;86.30;34.13;;;231.00;2252.80;;;;;;5028487;28;20032;-73
2024/01/03 04:46:22;;;;;;;51.83;22.63;;;231.00;2252.80;;;;;;5009998;28;20038;-73
2024/01/03 04:48:48;;;;;;;43.03;20.13;;;231.20;2252.80;;;;;;5030616;28;20472;-82
2024/01/03 04:51:15;;;;;;;24.25;11.77;;;231.10;2252.80;;;;;;5030402;28;20072;-66
2024/01/03 04:53:41;;;;;;;52.05;20.48;;;231.10;2252.80;;;;;;5028052;28;20474;-69
2024/01/03 04:56:07;;;;;;;45.67;19.80;;;231.10;2252.80;;;;;;5030911;28;20538;-81
2024/01/03 04:58:33;;;;;;;72.03;31.58;;;231.10;2252.80;;;;;;5009813;28;20065;-76
2024/01/03 05:00:58;;;;;;;21.25;10.85;;;231.10;2252.80;;;;;;5026865;28;20064;-65
2024/01/03 05:03:27;;;;;;;15.13;6.78;;;231.20;2252.80;;;;;;5028732;28;20053;-65
2024/01/03 05:05:53;;;;;;;36.92;16.10;;;231.20;2252.80;;;;;;5026330;28;20032;-74
2024/01/03 05:08:18;;;;;;;50.65;22.00;;;231.20;2252.80;;;;;;5031372;28;20037;-76
2024/01/03 05:10:44;;;;;;;84.38;35.90;;;231.30;2252.80;;;;;;5031139;28;20017;-72
2024/01/03 05:13:10;;;;;;;34.03;15.25;;;231.30;2252.80;;;;;;5028753;28;20104;-67
2024/01/03 05:15:35;;;;;;;40.33;17.90;;;256.00;2252.80;;;;;;5030265;28;20029;-67
2024/01/03 05:18:01;;;;;;;18.60;8.02;;;256.00;2252.80;;;;;;5030536;28;20057;-75
2024/01/03 05:20:27;;;;;;;55.83;25.63;;;256.00;2252.80;;;;;;5031404;28;20033;-74
2024/01/03 05:22:52;;;;;;;40.95;19.40;;;256.00;2252.80;;;;;;5044718;28;20444;-79
2024/01/03 05:25:18;;;;;;;47.38;23.00;;;256.00;2252.80;;;;;;5051568;28;20032;-67
2024/01/03 05:27:44;;;;;;;19.73;10.40;;;256.00;2252.80;;;;;;5049927;28;20025;-65
2024/01/03 05:30:11;;;;;;;22.17;10.65;;;256.00;2252.80;;;;;;5032484;28;20040;-74
2024/01/03 05:32:36;;;;;;;34.58;16.58;;;256.00;2252.80;;;;;;5030756;28;20096;-66
2024/01/03 05:35:02;;;;;;;14.45;6.97;;;256.00;2252.80;;;;;;5033115;28;20025;-72
2024/01/03 05:37:28;;;;;;;32.50;17.13;;;256.00;2252.80;;;;;;5030929;28;20480;-71
2024/01/03 05:39:54;;;;;;;18.77;11.10;;;256.00;2252.80;;;;;;5030928;28;20033;-81
2024/01/03 05:42:20;;;;;;;20.30;11.25;;;256.00;2252.80;;;;;;5027019;28;20025;-78
2024/01/03 05:44:46;;;;;;;32.78;15.32;;;256.10;2252.80;;;;;;5026933;28;20476;-73
2024/01/03 05:47:11;;;;;;;39.35;20.92;;;256.00;2252.80;;;;;;5013613;28;20200;-67
2024/01/03 05:49:37;;;;;;;47.78;29.08;;;256.00;2252.80;;;;;;5030292;28;20025;-70
2024/01/03 05:52:04;;;;;;;23.98;15.90;;;256.00;2252.80;;;;;;5030783;28;20464;-66
2024/01/03 05:54:31;;;;;;;15.07;8.85;;;256.00;2252.80;;;;;;5030630;28;20076;-81
2024/01/03 05:57:03;;;;;;;32.95;17.35;;;256.00;2252.80;;;;;;5031648;28;20096;-80
2024/01/03 05:59:28;;;;;;;35.20;20.83;;;256.00;2252.80;;;;;;5028701;28;20025;-81
2024/01/03 06:01:54;;;;;;;23.67;12.10;;;256.00;2252.80;;;;;;5030322;28;20040;-73
2024/01/03 06:04:20;;;;;;;13.85;7.30;;;256.00;2252.80;;;;;;5031225;28;20107;-81
2024/01/03 06:06:46;;;;;;;25.10;14.07;;;256.00;2252.80;;;;;;5031207;28;20029;-78
2024/01/03 06:09:11;;;;;;;25.33;12.88;;;256.00;2252.80;;;;;;5032215;28;20038;-67
2024/01/03 06:11:37;;;;;;;57.05;28.08;;;231.30;2252.80;;;;;;5031262;28;20076;-74
2024/01/03 06:14:03;;;;;;;48.47;23.05;;;256.40;2252.80;;;;;;5031167;28;20488;-69
2024/01/03 06:16:32;;;;;;;49.88;23.98;;;231.20;2252.80;;;;;;5030570;28;20392;-73
2024/01/03 06:18:57;;;;;;;27.27;13.82;;;231.20;2252.80;;;;;;5031050;28;20021;-79
2024/01/03 06:21:23;;;;;;;32.28;14.68;;;231.10;2252.80;;;;;;5031986;28;20037;-79
2024/01/03 06:23:52;;;;;;;16.75;8.38;;;231.10;1971.20;;;;;;5014486;28;20484;-83
2024/01/03 06:26:17;;;;;;;33.05;15.55;;;231.00;2252.80;;;;;;5031991;28;20131;-77
2024/01/03 06:28:43;;;;;;;42.08;20.30;;;231.00;2252.80;;;;;;5043081;28;20049;-80
2024/01/03 06:31:09;;;;;;;31.90;14.77;;;231.00;2252.80;;;;;;5031202;28;20029;-67
2024/01/03 06:33:35;;;;;;;31.00;14.30;;;231.00;2252.80;;;;;;5026596;28;20092;-73
2024/01/03 06:36:00;;;;;;;35.92;16.58;;;230.90;2252.80;;;;;;5032571;28;20152;-81
2024/01/03 06:38:26;;;;;;;30.70;14.52;;;230.90;2252.80;;;;;;5033711;28;20052;-77
2024/01/03 06:40:52;;;;;;;27.38;13.05;;;230.90;2252.80;;;;;;5036839;28;20479;-69
2024/01/03 06:43:17;;;;;;;24.77;12.45;;;230.90;2252.80;;;;;;5030474;28;20040;-70
2024/01/03 06:45:43;;;;;;;28.60;14.95;;;230.90;2252.80;;;;;;5033438;28;20104;-81
2024/01/03 06:48:09;;;;;;;27.30;14.02;;;231.00;2252.80;;;;;;5034523;28;20121;-78
2024/01/03 06:50:35;;;;;;;30.55;16.08;;;230.90;2252.80;;;;;;5045717;28;20086;-79
2024/01/03 06:53:01;;;;;;;20.40;10.05;;;230.90;2252.80;;;;;;5051591;28;20025;-72
2024/01/03 06:55:27;;;;;;;28.65;14.27;;;230.90;2252.80;;;;;;5052560;28;20029;-78
2024/01/03 06:57:53;;;;;;;17.20;9.48;;;230.80;2252.80;;;;;;5051363;28;20807;-67
2024/01/03 07:00:19;;;;;;;15.93;8.32;;;230.80;2252.80;;;;;;5038395;28;20056;-73
2024/01/03 07:02:45;;;;;;;18.63;8.13;;;230.80;2252.80;;;;;;5031557;28;20038;-71
2024/01/03 07:05:11;;;;;;;15.20;8.00;;;230.80;2252.80;;;;;;5032051;28;20751;-72
2024/01/03 07:07:36;;;;;;;27.77;14.25;;;230.80;2252.80;;;;;;5031351;28;20455;-68
2024/01/03 07:10:02;;;;;;;15.32;8.70;;;230.80;2252.80;;;;;;5031764;28;20022;-70
2024/01/03 07:12:28;;;;;;;22.60;11.30;;;230.80;2252.80;;;;;;5031855;28;20032;-67
2024/01/03 07:14:54;;;;;;;49.20;21.85;;;230.80;2252.80;;;;;;5031841;28;20033;-73
2024/01/03 07:17:20;;;;;;;52.80;22.23;;;230.90;2252.80;;;;;;5028512;28;20184;-83
2024/01/03 07:19:45;;;;;;;38.42;19.08;;;230.90;2252.80;;;;;;5032893;28;20034;-68
2024/01/03 07:22:14;;;;;;;49.42;27.25;;;230.90;2252.80;;;;;;5052739;28;20077;-84
2024/01/03 07:24:39;;;;;;;395.33;156.60;;;230.90;2252.80;;;;;;5034886;28;20391;-82
2024/01/03 07:27:05;;;;;;;26.40;13.98;;;230.90;2252.80;;;;;;5034631;28;20025;-82
2024/01/03 07:29:31;;;;;;;32.00;16.35;;;230.80;2252.80;;;;;;5032474;28;20045;-81
2024/01/03 07:31:57;;;;;;;43.80;22.15;;;230.80;2252.80;;;;;;5034894;28;20811;-85
2024/01/03 07:34:22;;;;;;;98.45;40.20;;;230.70;2252.80;;;;;;5034794;28;20045;-81
2024/01/03 07:36:49;;;;;;;33.05;18.10;;;230.50;2252.80;;;;;;5032292;28;20017;-84
2024/01/03 07:39:15;;;;;;;13.00;7.45;;;230.40;2252.80;;;;;;5032410;28;20064;-85
2024/01/03 07:41:41;;;;;;;17.95;10.40;;;205.60;2252.80;;;;;;5032851;28;20109;-71
2024/01/03 07:44:07;;;;;;;57.20;31.08;;;205.60;2252.80;;;;;;5040306;28;20096;-67
2024/01/03 07:46:32;;;;;;;129.88;57.85;;;205.40;2252.80;;;;;;5034496;28;20030;-71
2024/01/03 07:48:58;;;;;;;55.92;27.80;;;205.30;2252.80;;;;;;5035799;28;20514;-79
2024/01/03 07:51:24;;;;;;;57.78;30.33;;;205.30;2252.80;;;;;;5035603;28;20026;-74
2024/01/03 07:53:50;;;;;;;20.17;12.70;;;205.30;2252.80;;;;;;5033946;28;20388;-83
2024/01/03 07:56:16;;;;;;;33.08;16.63;;;205.30;2252.80;;;;;;5024562;28;20026;-68
2024/01/03 07:58:42;;;;;;;81.97;40.15;;;205.20;2252.80;;;;;;5015638;28;20033;-80
2024/01/03 08:01:10;;;;;;;114.00;58.55;;;205.20;2252.80;;;;;;5029613;28;20503;-74
2024/01/03 08:03:36;;;;;;;60.47;28.20;;;205.10;2252.80;;;;;;5035060;28;20131;-72
2024/01/03 08:06:01;;;;;;;51.13;26.83;;;205.10;2252.80;;;;;;5039555;28;20079;-80
2024/01/03 08:08:27;;;;;;;57.20;34.75;;;205.10;2252.80;;;;;;5033013;28;20472;-67
2024/01/03 08:10:53;;;;;;;56.58;32.10;;;205.20;2252.80;;;;;;5034214;28;20025;-84
2024/01/03 08:13:19;;;;;;;79.50;39.75;;;205.20;2252.80;;;;;;5034007;28;20033;-78
2024/01/03 08:15:44;;;;;;;63.78;29.70;;;205.30;2252.80;;;;;;5037814;28;20104;-78
2024/01/03 08:18:10;;;;;;;103.65;44.72;;;205.30;2252.80;;;;;;5034604;28;20029;-67
2024/01/03 08:20:36;;;;;;;45.20;25.15;;;205.40;2252.80;;;;;;5034267;28;20092;-69
2024/01/03 08:23:01;;;;;;;33.60;16.35;;;205.50;2252.80;;;;;;5034688;28;20033;-82
2024/01/03 08:25:27;;;;;;;25.50;12.95;;;205.60;2252.80;;;;;;5034882;28;20041;-71
2024/01/03 08:27:56;;;;;;;65.65;24.45;;;205.60;2252.80;;;;;;5037299;28;20048;-81
2024/01/03 08:30:21;;;;;;;31.30;16.38;;;205.70;2252.80;;;;;;5034666;28;20040;-82
2024/01/03 08:32:47;;;;;;;123.25;51.90;;;230.40;2252.80;;;;;;5034094;28;20025;-82
2024/01/03 08:35:13;;;;;;;83.57;31.45;;;230.50;2252.80;;;;;;5034055;28;20091;-67
2024/01/03 08:37:41;;;;;;;75.38;33.97;;;230.50;2252.80;;;;;;5038504;28;20032;-81
2024/01/03 08:40:08;;;;;;;49.67;31.45;;;230.50;2252.80;;;;;;5031746;28;20784;-70
2024/01/03 08:42:34;;;;;;;235.73;83.20;;;230.60;2252.80;;;;;;5035194;28;20041;-82
2024/01/03 08:45:00;;;;;;;69.43;33.60;;;230.60;2252.80;;;;;;5030391;28;20032;-79
2024/01/03 08:47:26;;;;;;;24.00;12.50;;;230.60;2252.80;;;;;;5039218;28;20037;-72
2024/01/03 08:49:51;;;;;;;75.20;34.80;;;230.60;2252.80;;;;;;5044827;28;20088;-76
2024/01/03 08:52:17;;;;;;;78.63;33.83;;;230.60;2252.80;;;;;;5034121;28;20025;-67
2024/01/03 08:54:43;;;;;;;110.10;47.95;;;230.60;2252.80;;;;;;5034819;28;20037;-80
2024/01/03 08:57:11;;;;;;;56.17;28.80;;;230.70;2252.80;;;;;;5036415;28;20457;-79
2024/01/03 08:59:37;;;;;;;93.35;47.17;;;230.70;2252.80;;;;;;5013185;28;20030;-73
2024/01/03 09:02:04;;;;;;;47.28;25.05;;;231.10;2252.80;;;;;;5030906;28;20026;-69
2024/01/03 09:04:30;;;;;;;74.13;38.75;;;230.90;2252.80;;;;;;5029618;28;20037;-69
2024/01/03 09:06:55;;;;;;;110.80;44.53;;;230.90;2252.80;;;;;;5031666;28;20360;-67
2024/01/03 09:09:22;;;;;;;134.93;56.20;;;;;;;;;;5034643;28;20044;-72
2024/01/03 09:11:47;;;;;;;99.60;45.15;;;231.30;2252.80;;;;;;5032964;28;20025;-68
2024/01/03 09:14:13;;;;;;;51.22;25.98;;;231.10;2252.80;;;;;;5014359;28;20045;-79
2024/01/03 09:16:39;;;;;;;59.38;30.35;;;231.10;2252.80;;;;;;5032230;28;20029;-74
2024/01/03 09:19:05;;;;;;;37.40;20.50;;;231.30;2252.80;;;;;;5032651;28;20040;-69
2024/01/03 09:21:31;;;;;;;85.32;31.08;;;231.10;2252.80;;;;;;5032838;28;20024;-74
2024/01/03 09:23:58;;;;;;;29.83;17.45;;;231.10;2252.80;;;;;;5043559;28;20079;-73
2024/01/03 09:26:26;;;;;;;37.58;16.45;;;231.20;2252.80;;;;;;5054617;28;20423;-77
2024/01/03 09:28:52;;;;;;;43.20;19.35;;;231.20;2252.80;;;;;;5053324;28;20031;-70
2024/01/03 09:31:19;;;;;;;27.58;12.57;;;231.20;2252.80;;;;;;5053725;28;20063;-78
2024/01/03 09:33:45;;;;;;;31.33;16.15;;;231.20;2252.80;;;;;;5052565;28;20037;-77
2024/01/03 09:36:20;;;;;;;38.75;17.00;;;231.30;2252.80;;;;;;5042249;28;20333;-77
2024/01/03 09:38:47;;;;;;;53.83;24.52;;;231.20;2252.80;;;;;;5043647;28;20028;-74
2024/01/03 09:41:17;;;;;;;61.22;26.65;;;231.30;2252.80;;;;;;5033013;28;20029;-71
2024/01/03 09:43:44;;;;;;;47.92;23.13;;;231.30;2252.80;;;;;;5038067;28;20037;-74
2024/01/03 09:46:10;;;;;;;62.63;23.65;;;231.30;2252.80;;;;;;5032081;28;20017;-73
2024/01/03 09:48:41;;;;;;;43.50;17.35;;;231.20;2252.80;;;;;;5032044;28;20052;-76
2024/01/03 09:51:10;;;;;;;26.35;12.65;;;231.20;2252.80;;;;;;5032005;28;20377;-68
2024/01/03 09:53:36;;;;;;;52.85;20.50;;;231.20;2252.80;;;;;;5037078;28;20045;-70
2024/01/03 09:56:05;;;;;;;49.00;19.88;;;231.10;2252.80;;;;;;5032784;28;20403;-79
2024/01/03 09:58:33;;;;;;;100.43;36.80;;;231.20;2252.80;;;;;;5039902;28;20057;-67
2024/01/03 10:01:00;;;;;;;94.70;35.08;;;231.20;2252.80;;;;;;5042904;28;20063;-79
2024/01/03 10:03:25;;;;;;;52.85;23.58;;;231.10;2252.80;;;;;;5046716;28;20073;-71
2024/01/03 10:06:13;;;;;;;53.58;23.23;;;231.20;2252.80;;;;;;5040131;28;20028;-66
2024/01/03 10:08:58;;;;;;;106.97;43.22;;;231.20;2252.80;;;;;;5049832;28;20045;-76
2024/01/03 10:11:24;;;;;;;67.10;30.58;;;231.30;2252.80;;;;;;5051574;28;20432;-78
2024/01/03 10:13:51;;;;;;;39.38;19.33;;;256.00;2252.80;;;;;;5044228;28;20037;-72
2024/01/03 10:16:24;;;;;;;64.32;26.70;;;256.40;2252.80;;;;;;5031307;28;20060;-73
2024/01/03 10:19:06;;;;;;;68.82;27.63;;;256.20;2252.80;;;;;;5032425;28;20488;-66
2024/01/03 10:21:38;;;;;;;64.90;29.02;;;256.30;2252.80;;;;;;5032618;28;20037;-67
2024/01/03 10:24:06;;;;;;;38.70;18.80;;;256.30;2252.80;;;;;;5032775;28;20025;-80
2024/01/03 10:26:33;;;;;;;90.63;35.80;;;256.40;2252.80;;;;;;5034681;28;20159;-78
2024/01/03 10:29:33;;;;;;;84.72;36.60;;;256.40;2252.80;;;;;;5031644;28;20116;-67
2024/01/03 10:31:58;;;;;;;87.22;36.08;;;256.50;2252.80;;;;;;4991031;28;20045;-83
2024/01/03 10:34:24;;;;;;;98.82;40.13;;;256.50;2252.80;;;;;;4990373;28;20034;-72
2024/01/03 10:36:52;;;;;;;58.30;27.08;;;256.50;2252.80;;;;;;4980397;28;20034;-66
2024/01/03 10:39:19;;;;;;;64.10;29.55;;;256.50;2252.80;;;;;;4991884;28;20036;-66
2024/01/03 10:41:46;;;;;;;60.67;29.70;;;256.60;2252.80;;;;;;4991133;28;20069;-76
2024/01/03 10:44:17;;;;;;;48.42;26.10;;;256.50;2252.80;;;;;;4990716;28;20034;-68
2024/01/03 10:46:44;;;;;;;67.60;31.27;;;256.60;2252.80;;;;;;4982822;28;20031;-71
2024/01/03 10:49:10;;;;;;;149.88;62.20;;;256.60;2252.80;;;;;;4971126;28;20130;-66
2024/01/03 10:51:40;;;;;;;56.80;25.23;;;256.70;2252.80;;;;;;4970746;28;20035;-75
2024/01/03 10:54:17;;;;;;;82.75;35.78;;;256.60;2252.80;;;;;;4971425;28;20042;-84
2024/01/03 10:56:52;;;;;;;116.07;56.40;;;256.50;2252.80;;;;;;4972684;28;20105;-69
2024/01/03 10:59:25;;;;;;;81.30;35.30;;;256.40;2252.80;;;;;;4989641;28;20042;-72
2024/01/03 11:02:40;;;;;;;54.00;24.95;;;256.50;2252.80;;;;;;4989653;28;20034;-66
2024/01/03 11:05:28;;;;;;;69.18;32.60;;;256.50;2252.80;;;;;;4970743;28;20054;-86
2024/01/03 11:08:04;;;;;;;86.68;39.65;;;256.50;2252.80;;;;;;4968651;28;20035;-80
2024/01/03 11:10:54;;;;;;;63.92;29.40;;;256.50;2252.80;;;;;;4951677;28;20126;-66
2024/01/03 11:13:30;;;;;;;70.10;36.42;;;256.60;2252.80;;;;;;4951634;29;20035;-74
2024/01/03 11:16:01;;;;;;;89.95;46.50;;;256.60;2252.80;;;;;;4957103;28;20549;-72
2024/01/03 11:18:42;;;;;;;59.97;32.97;;;256.60;2252.80;;;;;;4956281;28;20031;-67
2024/01/03 11:21:35;;;;;;;43.28;23.77;;;256.70;2252.80;;;;;;4950821;28;20418;-67
2024/01/03 11:24:19;;;;;;;60.63;30.20;;;256.70;2252.80;;;;;;4951328;28;20031;-68
2024/01/03 11:29:48;;;;;;;57.75;28.33;;;256.70;2252.80;;;;;;4958621;28;20031;-69
2024/01/03 11:32:35;;;;;;;71.07;36.53;;;256.70;2252.80;;;;;;4953906;28;20496;-67
2024/01/03 11:35:03;;;;;;;70.85;38.00;;;256.70;2252.80;;;;;;4956074;29;20047;-67
2024/01/03 11:37:29;;;;;;;43.47;24.00;;;256.70;2252.80;;;;;;4954508;28;20027;-67
2024/01/03 11:39:56;;;;;;;58.35;32.58;;;256.80;2252.80;;;;;;4961577;28;20049;-72
2024/01/03 11:42:38;;;;;;;99.97;57.75;;;256.70;2252.80;;;;;;5036792;28;20045;-68
2024/01/03 11:45:08;;;;;;;97.70;52.90;;;256.80;2252.80;;;;;;5040075;28;20024;-68
2024/01/03 11:47:39;;;;;;;56.25;31.65;;;256.70;2252.80;;;;;;5033835;28;20061;-73
2024/01/03 11:50:08;;;;;;;76.93;42.28;;;256.70;2252.80;;;;;;5035087;28;20037;-67
2024/01/03 11:52:45;;;;;;;85.55;44.97;;;256.60;2252.80;;;;;;5042676;28;20025;-67
2024/01/03 11:55:16;;;;;;;104.57;54.03;;;256.60;2252.80;;;;;;5032441;28;20068;-72
2024/01/03 11:57:44;;;;;;;69.72;34.83;;;256.60;2252.80;;;;;;5032822;28;20038;-69
2024/01/03 12:00:21;;;;;;;68.13;33.20;;;256.50;2252.80;;;;;;5033095;28;20472;-67
2024/01/03 12:02:57;;;;;;;82.50;44.03;;;256.40;2252.80;;;;;;5033248;28;20057;-70
2024/01/03 12:05:27;;;;;;;54.33;27.85;;;256.40;2252.80;;;;;;5034461;28;20037;-70
2024/01/03 12:07:55;;;;;;;101.22;52.50;;;256.40;2252.80;;;;;;5031672;28;20025;-74